Pagrindinis puslapis
METAR-TAF:

METAR-TAF

Oro uostai :

Karlstadas, Švedija

platuma: 59-26-41N, ilguma: 013-20-15E, Aukštis: 107 m

Dabartinis oras

Ataskaita buvo paskelbta 32 minutes, ne 06:20 UTC
Vėjas 3 kt iš Vakarų/Šiaurės Vakarų
Temperatūra 1°C
Drėgmė 75%
Slėgis 1024 hPa
Matomumas 10 km arba daugiau

METAR: ESOK 100620Z AUTO 30003KT 9999 NCD 01/M03 Q1024

Laikas: 08:52 (06:52 UTC)

Prognozė

Ataskaita buvo paskelbta 19 valandos ir 22 minutes, ne 11:30 UTC
Prognozė galioja nuo 09 metu 12 UTC su 09 metu 15 UTC
Vėjas 11 kt iš Šiaurės Vakarų su gūsio iki 21 kt
Matomumas 10 km arba daugiau
nėra debesų žemiau 1500 m ir nėra kamuolinių lietaus debesų

TAF: ESOK 091130Z 0912/0915 32011G21KT CAVOK

Orai ataskaitas ir orų prognozės (METAR, TAF).

turimą stotys yra geltonos ir raudonos taškus žemėlapyje.

Perkelti pele per norėdami pamatyti stoties vardą.

Tada spustelėkite, norėdami matyti oro stebėjimo ir prognozės.

Norėdami pakeisti žemėlapį: spustelėkite ant žalios mygtukų su juodo kryžiaus žemyn,; žalią mygtuką su brūkšneliu, jei norite nutolinti; arba žalių rodyklių gretimoms žemėlapius.


METAR-TAF: